LFKB 301030Z AUTO 35007KT 320V030 9999 FEW041 20/12 Q1017 NOSIG

ElémentsDécodage
LFKB Station météo située sur l'aérodrome de BASTIA Poretta
301030Z émis le 30 du mois à 10h30 UTC
AUTO Bulletin édité par un automate
35007KT vent du 350°, 07 noeuds
320V030 vent de direction variable entre 320° et 030°
9999 visibilité horizontale supérieure à 10 Km
FEW041 nuages rares (1/8 à 2/8) à 4100 pieds
20/12 température 20°C, point de rosée 12°C
 soit une humidité relative de 60%
Q1017 la pression au niveau de la mer (QNH) est de 1017 hPa
NOSIG Pas de changement significatif prévu au cours des deux heures suivant l'heure de l'observation